createdAt,value
2023-04-07T00:00:17.315Z,13.7
2023-04-07T00:02:16.691Z,17.6
2023-04-07T00:04:16.150Z,13.8
2023-04-07T00:06:15.816Z,14.2
2023-04-07T00:08:15.626Z,12.8
2023-04-07T00:10:15.156Z,13.4
2023-04-07T00:12:15.253Z,13.8
2023-04-07T00:14:14.870Z,12.8
2023-04-07T00:16:14.339Z,13.7
2023-04-07T00:18:14.211Z,15.0
2023-04-07T00:20:13.813Z,14.8
2023-04-07T00:22:13.295Z,16.5
2023-04-07T00:24:16.380Z,13.2
2023-04-07T00:26:12.979Z,16.3
2023-04-07T00:28:12.397Z,12.9
2023-04-07T00:30:12.283Z,15.9
2023-04-07T00:32:11.823Z,17.6
2023-04-07T00:34:11.422Z,16.7
2023-04-07T00:36:11.396Z,13.5
2023-04-07T00:38:11.029Z,15.1
2023-04-07T00:40:11.365Z,12.4
2023-04-07T00:42:10.712Z,15.1
2023-04-07T00:46:09.752Z,13.1
2023-04-07T00:48:09.629Z,15.8
2023-04-07T00:50:10.481Z,15.9
2023-04-07T00:52:10.489Z,16.2
2023-04-07T00:54:09.382Z,24.9
2023-04-07T00:56:08.089Z,18.9
2023-04-07T00:58:08.566Z,15.8
2023-04-07T01:00:08.893Z,15.6
2023-04-07T01:02:13.051Z,14.6
2023-04-07T01:04:11.788Z,14.6
2023-04-07T01:06:07.531Z,18.8
2023-04-07T01:08:13.391Z,16.4
2023-04-07T01:10:11.374Z,14.6
2023-04-07T01:12:19.142Z,17.3
2023-04-07T01:14:06.362Z,16.4
2023-04-07T01:16:12.077Z,17.1
2023-04-07T01:18:10.235Z,16.1
2023-04-07T01:20:07.344Z,18.8
2023-04-07T01:22:09.758Z,19.2
2023-04-07T01:24:20.058Z,15.7
2023-04-07T01:26:17.896Z,19.9
2023-04-07T01:28:22.058Z,18.2
2023-04-07T01:30:07.223Z,21.9
2023-04-07T01:32:07.154Z,19.0
2023-04-07T01:34:03.503Z,19.7
2023-04-07T01:36:02.795Z,17.5
2023-04-07T01:38:02.815Z,18.3
2023-04-07T01:40:02.016Z,20.0
2023-04-07T01:42:04.450Z,21.0
2023-04-07T01:44:01.870Z,17.2
2023-04-07T01:46:01.622Z,18.2
2023-04-07T01:48:00.681Z,18.4
2023-04-07T01:50:03.529Z,18.9
2023-04-07T01:52:00.606Z,27.0
2023-04-07T01:54:01.709Z,25.6
2023-04-07T01:55:58.913Z,26.9
2023-04-07T01:58:03.807Z,27.1
2023-04-07T01:59:58.755Z,26.8
2023-04-07T02:01:58.227Z,22.8
2023-04-07T02:04:06.691Z,26.3
2023-04-07T02:06:05.087Z,27.2
2023-04-07T02:08:01.458Z,25.1
2023-04-07T02:09:59.001Z,24.9
2023-04-07T02:11:59.321Z,22.5
2023-04-07T02:13:57.503Z,18.0
2023-04-07T02:15:57.177Z,21.8
2023-04-07T02:17:57.366Z,23.8
2023-04-07T02:19:57.758Z,22.1
2023-04-07T02:21:56.792Z,21.8
2023-04-07T02:23:54.971Z,21.7
2023-04-07T02:25:55.692Z,25.1
2023-04-07T02:27:55.900Z,22.8
2023-04-07T02:29:53.708Z,22.6
2023-04-07T02:31:55.331Z,21.3
2023-04-07T02:33:53.243Z,24.0
2023-04-07T02:35:52.938Z,21.4
2023-04-07T02:37:52.826Z,26.4
2023-04-07T02:39:52.310Z,20.3
2023-04-07T02:41:51.826Z,21.5
2023-04-07T02:43:51.620Z,23.4
2023-04-07T02:45:51.314Z,22.5
2023-04-07T02:47:51.076Z,23.0
2023-04-07T02:49:50.746Z,21.7
2023-04-07T02:53:49.996Z,24.2
2023-04-07T02:55:49.710Z,23.1
2023-04-07T02:57:49.575Z,25.6
2023-04-07T02:59:49.338Z,21.8
2023-04-07T03:01:48.704Z,24.9
2023-04-07T03:03:48.851Z,22.6
2023-04-07T03:05:47.940Z,24.2
2023-04-07T03:07:47.518Z,23.9
2023-04-07T03:09:47.300Z,20.7
2023-04-07T03:11:46.962Z,22.5
2023-04-07T03:13:46.511Z,23.5
2023-04-07T03:17:46.348Z,21.7
2023-04-07T03:19:46.084Z,23.9
2023-04-07T03:21:45.496Z,24.2
2023-04-07T03:23:44.974Z,25.3
2023-04-07T03:25:45.065Z,24.5
2023-04-07T03:27:44.463Z,22.8
2023-04-07T03:29:43.905Z,24.6
2023-04-07T03:31:43.584Z,28.9
2023-04-07T03:33:43.198Z,22.0
2023-04-07T03:39:42.281Z,22.7
2023-04-07T03:41:41.812Z,21.2
2023-04-07T03:45:41.627Z,23.0
2023-04-07T03:47:41.124Z,19.3
2023-04-07T03:49:40.514Z,20.3
2023-04-07T03:51:40.718Z,23.0
2023-04-07T03:53:40.337Z,24.9
2023-04-07T03:55:39.945Z,22.3
2023-04-07T03:57:39.313Z,20.8
2023-04-07T03:59:38.952Z,22.0
2023-04-07T04:01:38.691Z,22.8
2023-04-07T04:03:38.623Z,22.7
2023-04-07T04:05:37.917Z,25.5
2023-04-07T04:07:37.531Z,23.1
2023-04-07T04:09:37.247Z,21.5
2023-04-07T04:13:36.622Z,23.9
2023-04-07T04:15:36.230Z,25.7
2023-04-07T04:19:35.595Z,25.0
2023-04-07T04:21:35.078Z,24.1
2023-04-07T04:23:35.095Z,24.4
2023-04-07T04:25:35.167Z,25.0
2023-04-07T04:27:34.461Z,24.2
2023-04-07T04:29:33.853Z,23.8
2023-04-07T04:31:33.534Z,27.1
2023-04-07T04:33:33.076Z,24.0
2023-04-07T04:35:32.749Z,27.6
2023-04-07T04:37:32.350Z,24.5
2023-04-07T04:39:32.109Z,24.2
2023-04-07T04:41:31.646Z,23.7
2023-04-07T04:43:31.384Z,24.3
2023-04-07T04:45:31.485Z,26.0
2023-04-07T04:47:30.694Z,26.9
2023-04-07T04:49:30.645Z,26.6
2023-04-07T04:51:29.956Z,24.1
2023-04-07T04:53:29.672Z,24.9
2023-04-07T04:55:29.535Z,23.1
2023-04-07T04:57:29.001Z,25.2
2023-04-07T04:59:28.636Z,29.1
2023-04-07T05:01:28.477Z,23.5
2023-04-07T05:03:28.379Z,26.6
2023-04-07T05:05:27.791Z,23.0
2023-04-07T05:07:27.520Z,29.0
2023-04-07T05:09:26.869Z,26.3
2023-04-07T05:11:26.541Z,27.0
2023-04-07T05:13:26.174Z,26.9
2023-04-07T05:15:26.126Z,27.6
2023-04-07T05:17:25.467Z,25.9
2023-04-07T05:19:26.273Z,27.0
2023-04-07T05:21:26.062Z,24.8
2023-04-07T05:23:24.456Z,24.2
2023-04-07T05:25:24.286Z,28.1
2023-04-07T05:27:23.683Z,26.9
2023-04-07T05:31:23.067Z,25.0
2023-04-07T05:33:22.659Z,22.2
2023-04-07T05:35:22.983Z,24.6
2023-04-07T05:37:22.010Z,24.5
2023-04-07T05:39:21.549Z,24.8
2023-04-07T05:41:21.199Z,30.3
2023-04-07T05:43:20.851Z,22.5
2023-04-07T05:45:20.573Z,26.2
2023-04-07T05:47:20.144Z,24.2
2023-04-07T05:49:20.621Z,24.8
2023-04-07T05:51:19.322Z,26.9
2023-04-07T05:53:19.018Z,24.5
2023-04-07T05:55:18.939Z,23.9
2023-04-07T05:57:18.363Z,27.1
2023-04-07T05:59:17.744Z,25.3
2023-04-07T06:01:17.420Z,27.2
2023-04-07T06:03:17.858Z,24.2
2023-04-07T06:05:16.900Z,24.7
2023-04-07T06:07:16.434Z,25.3
2023-04-07T06:09:15.996Z,26.1
2023-04-07T06:11:15.610Z,25.8
2023-04-07T06:13:15.247Z,29.9
2023-04-07T06:15:15.127Z,28.6
2023-04-07T06:17:14.637Z,27.5
2023-04-07T06:19:14.230Z,23.2
2023-04-07T06:21:14.575Z,28.1
2023-04-07T06:23:13.424Z,29.5
2023-04-07T06:25:13.145Z,29.0
2023-04-07T06:27:12.928Z,29.5
2023-04-07T06:29:12.483Z,33.9
2023-04-07T06:31:12.054Z,29.6
2023-04-07T06:33:11.698Z,29.1
2023-04-07T06:35:11.478Z,32.0
2023-04-07T06:37:10.929Z,31.6
2023-04-07T06:39:10.641Z,27.4
2023-04-07T06:41:16.107Z,30.4
2023-04-07T06:43:09.957Z,27.2
2023-04-07T06:45:09.726Z,30.4
2023-04-07T06:47:09.581Z,31.2
2023-04-07T06:49:08.787Z,31.1
2023-04-07T06:51:08.561Z,28.2
2023-04-07T06:53:08.050Z,31.7
2023-04-07T06:55:08.459Z,29.1
2023-04-07T06:57:11.023Z,29.3
2023-04-07T06:59:07.904Z,30.8
2023-04-07T07:01:06.696Z,28.1
2023-04-07T07:03:06.521Z,34.5
2023-04-07T07:05:07.291Z,32.2
2023-04-07T07:07:05.796Z,29.7
2023-04-07T07:09:05.448Z,32.2
2023-04-07T07:11:05.136Z,33.4
2023-04-07T07:13:04.645Z,34.1
2023-04-07T07:15:05.252Z,31.7
2023-04-07T07:17:03.879Z,31.8
2023-04-07T07:21:18.330Z,28.9
2023-04-07T07:23:02.758Z,32.0
2023-04-07T07:25:03.216Z,29.2
2023-04-07T07:27:02.763Z,34.8
2023-04-07T07:29:01.762Z,30.0
2023-04-07T07:31:09.218Z,31.4
2023-04-07T07:33:01.416Z,32.7
2023-04-07T07:35:00.785Z,32.4
2023-04-07T07:37:00.449Z,32.5
2023-04-07T07:39:00.133Z,29.1
2023-04-07T07:41:00.108Z,29.8
2023-04-07T07:43:00.174Z,22.8
2023-04-07T07:44:59.380Z,25.5
2023-04-07T07:46:58.736Z,27.5
2023-04-07T07:48:58.548Z,22.8
2023-04-07T07:50:58.220Z,27.3
2023-04-07T07:52:57.709Z,25.9
2023-04-07T07:54:57.347Z,30.3
2023-04-07T07:56:57.178Z,28.1
2023-04-07T07:58:58.160Z,28.2
2023-04-07T08:00:56.400Z,28.1
2023-04-07T08:02:56.175Z,26.1
2023-04-07T08:04:56.107Z,26.7
2023-04-07T08:06:55.432Z,29.7
2023-04-07T08:08:55.429Z,28.6
2023-04-07T08:10:54.777Z,27.1
2023-04-07T08:16:54.342Z,29.0
2023-04-07T08:18:53.604Z,29.0
2023-04-07T08:20:53.119Z,29.8
2023-04-07T08:22:52.939Z,28.5
2023-04-07T08:24:52.655Z,30.0
2023-04-07T08:26:52.258Z,24.6
2023-04-07T08:28:52.211Z,26.0
2023-04-07T08:30:51.720Z,29.2
2023-04-07T08:32:51.570Z,29.0
2023-04-07T08:34:51.046Z,28.1
2023-04-07T08:36:51.081Z,25.7
2023-04-07T08:38:50.779Z,29.6
2023-04-07T08:40:57.087Z,28.3
2023-04-07T08:42:51.688Z,27.4
2023-04-07T08:44:51.613Z,25.1
2023-04-07T08:46:50.909Z,27.3
2023-04-07T08:48:51.387Z,27.8
2023-04-07T08:50:51.775Z,23.0
2023-04-07T08:52:52.492Z,23.9
2023-04-07T08:54:48.553Z,23.7
2023-04-07T08:56:47.838Z,26.0
2023-04-07T08:58:48.196Z,20.8
2023-04-07T09:00:48.254Z,20.0
2023-04-07T09:02:48.420Z,21.6
2023-04-07T09:04:46.889Z,23.3
2023-04-07T09:06:46.129Z,23.4
2023-04-07T09:08:45.777Z,20.6
2023-04-07T09:10:45.692Z,18.9
2023-04-07T09:12:45.615Z,18.8
2023-04-07T09:14:45.031Z,19.7
2023-04-07T09:16:45.411Z,18.9
2023-04-07T09:18:44.292Z,18.1
2023-04-07T09:20:55.179Z,20.0
2023-04-07T09:22:44.556Z,19.9
2023-04-07T09:24:43.336Z,16.8
2023-04-07T09:26:42.989Z,16.0
2023-04-07T09:28:44.614Z,13.5
2023-04-07T09:30:52.485Z,10.4
2023-04-07T09:32:42.285Z,14.4
2023-04-07T09:34:41.856Z,11.7
2023-04-07T09:36:41.732Z,9.8
2023-04-07T09:38:43.610Z,9.7
2023-04-07T09:40:41.674Z,9.2
2023-04-07T09:42:45.370Z,10.7
2023-04-07T09:44:40.364Z,9.5
2023-04-07T09:46:48.084Z,11.3
2023-04-07T09:48:40.679Z,10.8
2023-04-07T09:50:41.046Z,10.7
2023-04-07T09:52:50.706Z,10.0
2023-04-07T09:54:40.744Z,7.6
2023-04-07T09:56:38.344Z,9.9
2023-04-07T09:58:39.085Z,10.6
2023-04-07T10:00:38.130Z,9.1
2023-04-07T10:04:38.218Z,8.2
2023-04-07T10:06:36.800Z,7.3
2023-04-07T10:08:38.374Z,11.5
2023-04-07T10:10:40.928Z,7.9
2023-04-07T10:12:36.790Z,9.0
2023-04-07T10:14:36.787Z,7.9
2023-04-07T10:16:36.848Z,7.6
2023-04-07T10:18:37.770Z,8.2
2023-04-07T10:20:38.565Z,8.6
2023-04-07T10:22:36.860Z,6.3
2023-04-07T10:24:46.188Z,7.2
2023-04-07T10:26:36.270Z,6.8
2023-04-07T10:28:37.729Z,7.4
2023-04-07T10:30:34.478Z,6.7
2023-04-07T10:32:46.781Z,9.2
2023-04-07T10:34:53.650Z,6.0
2023-04-07T10:36:33.865Z,6.9
2023-04-07T10:38:32.636Z,7.2
2023-04-07T10:42:45.853Z,6.9
2023-04-07T10:44:45.017Z,9.0
2023-04-07T10:46:51.216Z,11.4
2023-04-07T10:48:32.451Z,7.8
2023-04-07T10:50:30.841Z,7.0
2023-04-07T10:52:30.500Z,7.7
2023-04-07T10:54:30.532Z,8.1
2023-04-07T10:56:49.403Z,7.6
2023-04-07T10:58:30.134Z,8.6
2023-04-07T11:00:29.260Z,9.4
2023-04-07T11:02:33.121Z,8.3
2023-04-07T11:04:35.901Z,8.0
2023-04-07T11:06:28.691Z,9.5
2023-04-07T11:08:32.103Z,7.7
2023-04-07T11:10:27.743Z,6.0
2023-04-07T11:12:27.454Z,11.3
2023-04-07T11:14:28.489Z,8.6
2023-04-07T11:16:34.662Z,11.5
2023-04-07T11:18:26.694Z,12.2
2023-04-07T11:20:46.091Z,9.3
2023-04-07T11:22:30.299Z,11.8
2023-04-07T11:24:33.088Z,13.0
2023-04-07T11:26:25.525Z,10.3
2023-04-07T11:28:25.618Z,11.8
2023-04-07T11:30:24.958Z,12.3
2023-04-07T11:32:25.846Z,14.4
2023-04-07T11:34:28.757Z,9.4
2023-04-07T11:36:29.078Z,11.8
2023-04-07T11:38:26.342Z,12.6
2023-04-07T11:40:32.562Z,12.0
2023-04-07T11:42:31.792Z,9.6
2023-04-07T11:44:25.273Z,10.1
2023-04-07T11:46:22.792Z,12.0
2023-04-07T11:48:25.758Z,9.6
2023-04-07T11:50:40.003Z,12.5
2023-04-07T11:52:21.664Z,9.5
2023-04-07T11:54:21.656Z,9.3
2023-04-07T11:56:21.944Z,12.2
2023-04-07T11:58:20.822Z,8.9
2023-04-07T12:00:20.925Z,12.7
2023-04-07T12:02:30.507Z,10.7
2023-04-07T12:04:20.293Z,8.8
2023-04-07T12:06:28.071Z,11.5
2023-04-07T12:08:20.352Z,9.2
2023-04-07T12:10:20.198Z,10.7
2023-04-07T12:12:25.405Z,8.8
2023-04-07T12:14:18.907Z,8.9
2023-04-07T12:16:19.160Z,6.5
2023-04-07T12:18:18.431Z,11.2
2023-04-07T12:20:17.828Z,6.5
2023-04-07T12:22:17.508Z,7.6
2023-04-07T12:26:17.416Z,9.7
2023-04-07T12:28:16.609Z,11.6
2023-04-07T12:30:16.408Z,12.9
2023-04-07T12:34:15.907Z,9.5
